sensor_id;sensor_type;location;lat;lon;timestamp;P1;durP1;ratioP1;P2;durP2;ratioP2
17714;SDS011;8977;50.902;4.314;2023-07-13T00:00:22;5.35;;;1.55;;
17714;SDS011;8977;50.902;4.314;2023-07-13T00:02:51;7.00;;;1.85;;
17714;SDS011;8977;50.902;4.314;2023-07-13T00:05:18;6.53;;;1.50;;
17714;SDS011;8977;50.902;4.314;2023-07-13T00:07:46;4.95;;;1.60;;
17714;SDS011;8977;50.902;4.314;2023-07-13T00:10:15;5.53;;;1.35;;
17714;SDS011;8977;50.902;4.314;2023-07-13T00:12:42;5.45;;;1.55;;
17714;SDS011;8977;50.902;4.314;2023-07-13T00:15:11;4.95;;;2.05;;
17714;SDS011;8977;50.902;4.314;2023-07-13T00:17:42;4.65;;;1.70;;
17714;SDS011;8977;50.902;4.314;2023-07-13T00:20:11;5.60;;;1.63;;
17714;SDS011;8977;50.902;4.314;2023-07-13T00:22:38;6.88;;;1.63;;
17714;SDS011;8977;50.902;4.314;2023-07-13T00:25:06;6.47;;;1.63;;
17714;SDS011;8977;50.902;4.314;2023-07-13T00:27:36;6.32;;;1.80;;
17714;SDS011;8977;50.902;4.314;2023-07-13T00:30:04;5.82;;;1.65;;
17714;SDS011;8977;50.902;4.314;2023-07-13T00:32:34;4.70;;;1.63;;
17714;SDS011;8977;50.902;4.314;2023-07-13T00:35:02;4.13;;;1.50;;
17714;SDS011;8977;50.902;4.314;2023-07-13T00:37:30;4.88;;;1.75;;
17714;SDS011;8977;50.902;4.314;2023-07-13T00:39:57;7.30;;;1.83;;
17714;SDS011;8977;50.902;4.314;2023-07-13T00:42:23;5.55;;;2.17;;
17714;SDS011;8977;50.902;4.314;2023-07-13T00:45:04;8.68;;;2.03;;
17714;SDS011;8977;50.902;4.314;2023-07-13T00:47:34;3.20;;;1.33;;
17714;SDS011;8977;50.902;4.314;2023-07-13T00:50:00;4.50;;;1.50;;
17714;SDS011;8977;50.902;4.314;2023-07-13T00:52:30;4.88;;;1.60;;
17714;SDS011;8977;50.902;4.314;2023-07-13T00:54:58;5.25;;;1.50;;
17714;SDS011;8977;50.902;4.314;2023-07-13T00:57:26;5.10;;;1.70;;
17714;SDS011;8977;50.902;4.314;2023-07-13T00:59:54;5.13;;;1.70;;
17714;SDS011;8977;50.902;4.314;2023-07-13T01:02:27;5.80;;;1.80;;
17714;SDS011;8977;50.902;4.314;2023-07-13T01:04:56;7.10;;;1.83;;
17714;SDS011;8977;50.902;4.314;2023-07-13T01:07:30;6.05;;;2.00;;
17714;SDS011;8977;50.902;4.314;2023-07-13T01:09:57;8.48;;;1.83;;
17714;SDS011;8977;50.902;4.314;2023-07-13T01:12:24;4.90;;;1.95;;
17714;SDS011;8977;50.902;4.314;2023-07-13T01:14:56;5.57;;;1.95;;
17714;SDS011;8977;50.902;4.314;2023-07-13T01:17:23;5.65;;;1.90;;
17714;SDS011;8977;50.902;4.314;2023-07-13T01:19:51;4.93;;;1.75;;
17714;SDS011;8977;50.902;4.314;2023-07-13T01:22:19;4.18;;;1.67;;
17714;SDS011;8977;50.902;4.314;2023-07-13T01:24:50;8.57;;;2.00;;
17714;SDS011;8977;50.902;4.314;2023-07-13T01:27:21;6.20;;;1.77;;
17714;SDS011;8977;50.902;4.314;2023-07-13T01:29:50;9.35;;;2.15;;
17714;SDS011;8977;50.902;4.314;2023-07-13T01:32:21;6.63;;;1.85;;
17714;SDS011;8977;50.902;4.314;2023-07-13T01:34:50;4.05;;;1.52;;
17714;SDS011;8977;50.902;4.314;2023-07-13T01:37:20;7.50;;;1.77;;
17714;SDS011;8977;50.902;4.314;2023-07-13T01:39:48;4.70;;;1.77;;
17714;SDS011;8977;50.902;4.314;2023-07-13T01:42:15;6.85;;;1.70;;
17714;SDS011;8977;50.902;4.314;2023-07-13T01:44:42;6.05;;;1.70;;
17714;SDS011;8977;50.902;4.314;2023-07-13T01:47:09;6.45;;;2.17;;
17714;SDS011;8977;50.902;4.314;2023-07-13T01:49:36;5.68;;;1.80;;
17714;SDS011;8977;50.902;4.314;2023-07-13T01:52:04;6.22;;;1.92;;
17714;SDS011;8977;50.902;4.314;2023-07-13T01:54:33;5.30;;;1.63;;
17714;SDS011;8977;50.902;4.314;2023-07-13T01:57:01;6.30;;;2.00;;
17714;SDS011;8977;50.902;4.314;2023-07-13T01:59:29;5.35;;;2.10;;
17714;SDS011;8977;50.902;4.314;2023-07-13T02:01:58;7.95;;;1.88;;
17714;SDS011;8977;50.902;4.314;2023-07-13T02:04:28;7.60;;;2.10;;
17714;SDS011;8977;50.902;4.314;2023-07-13T02:06:54;8.13;;;1.90;;
17714;SDS011;8977;50.902;4.314;2023-07-13T02:09:22;6.10;;;2.03;;
17714;SDS011;8977;50.902;4.314;2023-07-13T02:11:53;4.25;;;1.77;;
17714;SDS011;8977;50.902;4.314;2023-07-13T02:14:20;9.27;;;2.33;;
17714;SDS011;8977;50.902;4.314;2023-07-13T02:19:17;5.78;;;2.10;;
17714;SDS011;8977;50.902;4.314;2023-07-13T02:21:45;7.35;;;1.85;;
17714;SDS011;8977;50.902;4.314;2023-07-13T02:24:12;9.15;;;2.15;;
17714;SDS011;8977;50.902;4.314;2023-07-13T02:26:42;2.78;;;1.70;;
17714;SDS011;8977;50.902;4.314;2023-07-13T02:29:11;7.97;;;1.98;;
17714;SDS011;8977;50.902;4.314;2023-07-13T02:31:39;5.35;;;2.03;;
17714;SDS011;8977;50.902;4.314;2023-07-13T02:34:08;6.10;;;2.03;;
17714;SDS011;8977;50.902;4.314;2023-07-13T02:36:34;6.72;;;2.33;;
17714;SDS011;8977;50.902;4.314;2023-07-13T02:39:02;6.75;;;2.50;;
17714;SDS011;8977;50.902;4.314;2023-07-13T02:41:31;7.10;;;2.20;;
17714;SDS011;8977;50.902;4.314;2023-07-13T02:43:58;7.65;;;1.95;;
17714;SDS011;8977;50.902;4.314;2023-07-13T02:46:30;4.70;;;1.73;;
17714;SDS011;8977;50.902;4.314;2023-07-13T02:48:57;5.90;;;2.28;;
17714;SDS011;8977;50.902;4.314;2023-07-13T02:51:23;7.07;;;2.05;;
17714;SDS011;8977;50.902;4.314;2023-07-13T02:53:51;5.32;;;1.95;;
17714;SDS011;8977;50.902;4.314;2023-07-13T02:56:22;8.63;;;2.05;;
17714;SDS011;8977;50.902;4.314;2023-07-13T02:58:51;8.07;;;2.40;;
17714;SDS011;8977;50.902;4.314;2023-07-13T03:01:19;7.30;;;2.03;;
17714;SDS011;8977;50.902;4.314;2023-07-13T03:03:48;8.40;;;2.28;;
17714;SDS011;8977;50.902;4.314;2023-07-13T03:06:15;7.00;;;2.28;;
17714;SDS011;8977;50.902;4.314;2023-07-13T03:08:43;5.95;;;1.85;;
17714;SDS011;8977;50.902;4.314;2023-07-13T03:11:11;8.27;;;2.10;;
17714;SDS011;8977;50.902;4.314;2023-07-13T03:13:39;6.78;;;2.38;;
17714;SDS011;8977;50.902;4.314;2023-07-13T03:16:07;5.82;;;2.00;;
17714;SDS011;8977;50.902;4.314;2023-07-13T03:18:37;5.75;;;2.05;;
17714;SDS011;8977;50.902;4.314;2023-07-13T03:21:05;7.72;;;2.25;;
17714;SDS011;8977;50.902;4.314;2023-07-13T03:23:32;5.97;;;2.13;;
17714;SDS011;8977;50.902;4.314;2023-07-13T03:26:03;5.35;;;2.03;;
17714;SDS011;8977;50.902;4.314;2023-07-13T03:28:35;6.72;;;2.15;;
17714;SDS011;8977;50.902;4.314;2023-07-13T03:31:02;8.80;;;2.08;;
17714;SDS011;8977;50.902;4.314;2023-07-13T03:33:31;10.75;;;2.30;;
17714;SDS011;8977;50.902;4.314;2023-07-13T03:35:58;7.30;;;2.50;;
17714;SDS011;8977;50.902;4.314;2023-07-13T03:38:26;8.13;;;2.35;;
17714;SDS011;8977;50.902;4.314;2023-07-13T03:40:54;9.30;;;2.78;;
17714;SDS011;8977;50.902;4.314;2023-07-13T03:43:22;4.95;;;2.08;;
17714;SDS011;8977;50.902;4.314;2023-07-13T03:45:49;6.47;;;2.10;;
17714;SDS011;8977;50.902;4.314;2023-07-13T03:48:15;5.82;;;2.15;;
17714;SDS011;8977;50.902;4.314;2023-07-13T03:50:42;6.47;;;2.20;;
17714;SDS011;8977;50.902;4.314;2023-07-13T03:53:15;7.78;;;2.97;;
17714;SDS011;8977;50.902;4.314;2023-07-13T03:55:45;6.57;;;2.13;;
17714;SDS011;8977;50.902;4.314;2023-07-13T03:58:31;6.43;;;1.90;;
17714;SDS011;8977;50.902;4.314;2023-07-13T04:01:01;5.15;;;2.30;;
17714;SDS011;8977;50.902;4.314;2023-07-13T04:03:30;6.60;;;2.33;;
17714;SDS011;8977;50.902;4.314;2023-07-13T04:05:58;5.80;;;2.25;;
17714;SDS011;8977;50.902;4.314;2023-07-13T04:08:26;7.75;;;2.47;;
17714;SDS011;8977;50.902;4.314;2023-07-13T04:10:56;8.52;;;2.42;;
17714;SDS011;8977;50.902;4.314;2023-07-13T04:13:23;7.80;;;2.40;;
17714;SDS011;8977;50.902;4.314;2023-07-13T04:15:51;7.85;;;2.17;;
17714;SDS011;8977;50.902;4.314;2023-07-13T04:18:19;5.40;;;2.28;;
17714;SDS011;8977;50.902;4.314;2023-07-13T04:20:46;9.63;;;2.67;;
17714;SDS011;8977;50.902;4.314;2023-07-13T04:23:15;6.32;;;2.30;;
17714;SDS011;8977;50.902;4.314;2023-07-13T04:25:43;7.00;;;2.20;;
17714;SDS011;8977;50.902;4.314;2023-07-13T04:28:12;8.88;;;2.13;;
17714;SDS011;8977;50.902;4.314;2023-07-13T04:30:39;8.10;;;2.58;;
17714;SDS011;8977;50.902;4.314;2023-07-13T04:33:06;8.25;;;2.33;;
17714;SDS011;8977;50.902;4.314;2023-07-13T04:35:33;8.73;;;2.28;;
17714;SDS011;8977;50.902;4.314;2023-07-13T04:38:01;6.82;;;2.45;;
17714;SDS011;8977;50.902;4.314;2023-07-13T04:40:28;7.95;;;2.60;;
17714;SDS011;8977;50.902;4.314;2023-07-13T04:42:55;8.65;;;2.40;;
17714;SDS011;8977;50.902;4.314;2023-07-13T04:45:23;9.98;;;2.60;;
17714;SDS011;8977;50.902;4.314;2023-07-13T04:47:50;7.20;;;2.80;;
17714;SDS011;8977;50.902;4.314;2023-07-13T04:50:17;6.00;;;2.42;;
17714;SDS011;8977;50.902;4.314;2023-07-13T04:52:48;6.88;;;2.42;;
17714;SDS011;8977;50.902;4.314;2023-07-13T04:55:16;9.25;;;2.70;;
17714;SDS011;8977;50.902;4.314;2023-07-13T04:57:44;6.97;;;2.50;;
17714;SDS011;8977;50.902;4.314;2023-07-13T05:00:11;10.35;;;3.00;;
17714;SDS011;8977;50.902;4.314;2023-07-13T05:02:43;7.35;;;2.30;;
17714;SDS011;8977;50.902;4.314;2023-07-13T05:05:10;6.45;;;2.50;;
17714;SDS011;8977;50.902;4.314;2023-07-13T05:07:38;10.68;;;2.75;;
17714;SDS011;8977;50.902;4.314;2023-07-13T05:10:05;8.65;;;2.85;;
17714;SDS011;8977;50.902;4.314;2023-07-13T05:12:33;7.30;;;2.42;;
17714;SDS011;8977;50.902;4.314;2023-07-13T05:15:00;8.23;;;2.58;;
17714;SDS011;8977;50.902;4.314;2023-07-13T05:17:27;12.15;;;2.75;;
17714;SDS011;8977;50.902;4.314;2023-07-13T05:19:56;8.13;;;2.53;;
17714;SDS011;8977;50.902;4.314;2023-07-13T05:22:23;7.88;;;2.90;;
17714;SDS011;8977;50.902;4.314;2023-07-13T05:24:50;6.13;;;2.35;;
17714;SDS011;8977;50.902;4.314;2023-07-13T05:27:16;6.82;;;2.45;;
17714;SDS011;8977;50.902;4.314;2023-07-13T05:29:43;9.60;;;2.67;;
17714;SDS011;8977;50.902;4.314;2023-07-13T05:32:10;7.80;;;2.60;;
17714;SDS011;8977;50.902;4.314;2023-07-13T05:34:37;7.85;;;2.30;;
17714;SDS011;8977;50.902;4.314;2023-07-13T05:37:05;7.80;;;2.75;;
17714;SDS011;8977;50.902;4.314;2023-07-13T05:39:33;10.10;;;2.78;;
17714;SDS011;8977;50.902;4.314;2023-07-13T05:42:01;8.45;;;3.00;;
17714;SDS011;8977;50.902;4.314;2023-07-13T05:44:28;10.15;;;2.53;;
17714;SDS011;8977;50.902;4.314;2023-07-13T05:46:55;9.23;;;2.70;;
17714;SDS011;8977;50.902;4.314;2023-07-13T05:49:22;8.93;;;2.80;;
17714;SDS011;8977;50.902;4.314;2023-07-13T05:51:49;8.90;;;2.78;;
17714;SDS011;8977;50.902;4.314;2023-07-13T05:54:17;8.45;;;2.58;;
17714;SDS011;8977;50.902;4.314;2023-07-13T05:56:44;12.90;;;3.15;;
17714;SDS011;8977;50.902;4.314;2023-07-13T05:59:11;9.63;;;2.67;;
17714;SDS011;8977;50.902;4.314;2023-07-13T06:01:38;8.77;;;2.85;;
17714;SDS011;8977;50.902;4.314;2023-07-13T06:04:05;8.82;;;2.97;;
17714;SDS011;8977;50.902;4.314;2023-07-13T06:06:32;8.70;;;2.70;;
17714;SDS011;8977;50.902;4.314;2023-07-13T06:08:59;8.05;;;2.38;;
17714;SDS011;8977;50.902;4.314;2023-07-13T06:11:27;9.20;;;2.65;;
17714;SDS011;8977;50.902;4.314;2023-07-13T06:13:55;6.68;;;2.38;;
17714;SDS011;8977;50.902;4.314;2023-07-13T06:16:22;10.95;;;2.70;;
17714;SDS011;8977;50.902;4.314;2023-07-13T06:18:49;9.02;;;2.90;;
17714;SDS011;8977;50.902;4.314;2023-07-13T06:21:16;8.07;;;2.78;;
17714;SDS011;8977;50.902;4.314;2023-07-13T06:23:45;9.13;;;2.85;;
17714;SDS011;8977;50.902;4.314;2023-07-13T06:26:13;11.75;;;3.15;;
17714;SDS011;8977;50.902;4.314;2023-07-13T06:28:42;7.72;;;2.90;;
17714;SDS011;8977;50.902;4.314;2023-07-13T06:31:10;8.57;;;3.20;;
17714;SDS011;8977;50.902;4.314;2023-07-13T06:33:38;8.95;;;2.88;;
17714;SDS011;8977;50.902;4.314;2023-07-13T06:36:05;12.13;;;3.10;;
17714;SDS011;8977;50.902;4.314;2023-07-13T06:38:34;9.68;;;2.78;;
17714;SDS011;8977;50.902;4.314;2023-07-13T06:41:01;10.93;;;3.58;;
17714;SDS011;8977;50.902;4.314;2023-07-13T06:43:28;11.32;;;3.20;;
17714;SDS011;8977;50.902;4.314;2023-07-13T06:45:58;9.32;;;2.78;;
17714;SDS011;8977;50.902;4.314;2023-07-13T06:48:26;9.00;;;2.97;;
17714;SDS011;8977;50.902;4.314;2023-07-13T06:50:53;8.73;;;2.88;;
17714;SDS011;8977;50.902;4.314;2023-07-13T06:53:20;10.82;;;3.40;;
17714;SDS011;8977;50.902;4.314;2023-07-13T06:55:47;6.90;;;3.13;;
17714;SDS011;8977;50.902;4.314;2023-07-13T06:58:15;9.07;;;3.67;;
17714;SDS011;8977;50.902;4.314;2023-07-13T07:00:43;9.38;;;3.50;;
17714;SDS011;8977;50.902;4.314;2023-07-13T07:03:12;8.48;;;3.10;;
17714;SDS011;8977;50.902;4.314;2023-07-13T07:05:39;9.00;;;3.20;;
17714;SDS011;8977;50.902;4.314;2023-07-13T07:08:06;9.90;;;3.30;;
17714;SDS011;8977;50.902;4.314;2023-07-13T07:10:33;8.93;;;3.17;;
17714;SDS011;8977;50.902;4.314;2023-07-13T07:13:01;9.80;;;3.30;;
17714;SDS011;8977;50.902;4.314;2023-07-13T07:15:28;10.88;;;3.38;;
17714;SDS011;8977;50.902;4.314;2023-07-13T07:17:55;8.63;;;3.45;;
17714;SDS011;8977;50.902;4.314;2023-07-13T07:20:25;8.80;;;3.10;;
17714;SDS011;8977;50.902;4.314;2023-07-13T07:22:54;10.57;;;3.25;;
17714;SDS011;8977;50.902;4.314;2023-07-13T07:25:22;7.45;;;3.17;;
17714;SDS011;8977;50.902;4.314;2023-07-13T07:27:49;10.10;;;3.05;;
17714;SDS011;8977;50.902;4.314;2023-07-13T07:30:16;11.48;;;3.58;;
17714;SDS011;8977;50.902;4.314;2023-07-13T07:32:43;9.20;;;3.05;;
17714;SDS011;8977;50.902;4.314;2023-07-13T07:35:12;8.85;;;2.72;;
17714;SDS011;8977;50.902;4.314;2023-07-13T07:37:41;8.70;;;2.60;;
17714;SDS011;8977;50.902;4.314;2023-07-13T07:40:08;10.55;;;3.10;;
17714;SDS011;8977;50.902;4.314;2023-07-13T07:42:35;9.80;;;3.20;;
17714;SDS011;8977;50.902;4.314;2023-07-13T07:45:05;10.20;;;2.97;;
17714;SDS011;8977;50.902;4.314;2023-07-13T07:47:34;7.60;;;2.92;;
17714;SDS011;8977;50.902;4.314;2023-07-13T07:50:00;12.05;;;2.78;;
17714;SDS011;8977;50.902;4.314;2023-07-13T07:52:27;7.35;;;3.22;;
17714;SDS011;8977;50.902;4.314;2023-07-13T07:54:56;6.55;;;2.80;;
17714;SDS011;8977;50.902;4.314;2023-07-13T07:57:23;9.80;;;3.08;;
17714;SDS011;8977;50.902;4.314;2023-07-13T07:59:50;8.15;;;3.00;;
17714;SDS011;8977;50.902;4.314;2023-07-13T08:02:16;6.95;;;2.67;;
17714;SDS011;8977;50.902;4.314;2023-07-13T08:04:44;7.43;;;2.88;;
17714;SDS011;8977;50.902;4.314;2023-07-13T08:07:11;10.18;;;3.25;;
17714;SDS011;8977;50.902;4.314;2023-07-13T08:09:38;5.85;;;3.13;;
17714;SDS011;8977;50.902;4.314;2023-07-13T08:12:08;8.20;;;3.00;;
17714;SDS011;8977;50.902;4.314;2023-07-13T08:14:35;11.05;;;3.20;;
17714;SDS011;8977;50.902;4.314;2023-07-13T08:17:03;8.27;;;3.00;;
17714;SDS011;8977;50.902;4.314;2023-07-13T08:19:30;7.85;;;3.10;;
17714;SDS011;8977;50.902;4.314;2023-07-13T08:21:57;6.88;;;2.50;;
17714;SDS011;8977;50.902;4.314;2023-07-13T08:24:24;7.43;;;3.22;;
17714;SDS011;8977;50.902;4.314;2023-07-13T08:26:51;7.22;;;2.70;;
17714;SDS011;8977;50.902;4.314;2023-07-13T08:29:19;6.43;;;2.80;;
17714;SDS011;8977;50.902;4.314;2023-07-13T08:31:46;8.18;;;2.90;;
17714;SDS011;8977;50.902;4.314;2023-07-13T08:34:13;4.65;;;2.53;;
17714;SDS011;8977;50.902;4.314;2023-07-13T08:36:41;8.68;;;2.92;;
17714;SDS011;8977;50.902;4.314;2023-07-13T08:39:07;5.80;;;2.80;;
17714;SDS011;8977;50.902;4.314;2023-07-13T08:41:34;5.80;;;3.10;;
17714;SDS011;8977;50.902;4.314;2023-07-13T08:44:03;5.60;;;3.13;;
17714;SDS011;8977;50.902;4.314;2023-07-13T08:46:36;9.23;;;3.22;;
17714;SDS011;8977;50.902;4.314;2023-07-13T08:49:05;7.30;;;2.85;;
17714;SDS011;8977;50.902;4.314;2023-07-13T08:51:41;6.18;;;2.33;;
17714;SDS011;8977;50.902;4.314;2023-07-13T08:54:17;9.35;;;3.03;;
17714;SDS011;8977;50.902;4.314;2023-07-13T08:56:47;4.45;;;2.53;;
17714;SDS011;8977;50.902;4.314;2023-07-13T08:59:18;9.23;;;2.80;;
17714;SDS011;8977;50.902;4.314;2023-07-13T09:02:00;7.30;;;2.80;;
17714;SDS011;8977;50.902;4.314;2023-07-13T09:04:54;8.50;;;2.75;;
17714;SDS011;8977;50.902;4.314;2023-07-13T09:07:36;7.15;;;2.67;;
17714;SDS011;8977;50.902;4.314;2023-07-13T09:10:14;8.40;;;2.70;;
17714;SDS011;8977;50.902;4.314;2023-07-13T09:12:51;7.65;;;3.00;;
17714;SDS011;8977;50.902;4.314;2023-07-13T09:15:28;6.35;;;2.42;;
17714;SDS011;8977;50.902;4.314;2023-07-13T09:17:59;6.68;;;2.65;;
17714;SDS011;8977;50.902;4.314;2023-07-13T09:20:31;4.65;;;2.45;;
17714;SDS011;8977;50.902;4.314;2023-07-13T09:23:03;10.73;;;3.40;;
17714;SDS011;8977;50.902;4.314;2023-07-13T09:25:34;9.85;;;2.50;;
17714;SDS011;8977;50.902;4.314;2023-07-13T09:28:05;8.13;;;2.53;;
17714;SDS011;8977;50.902;4.314;2023-07-13T09:30:40;7.47;;;3.08;;
17714;SDS011;8977;50.902;4.314;2023-07-13T09:33:14;6.68;;;2.60;;
17714;SDS011;8977;50.902;4.314;2023-07-13T09:35:41;6.65;;;2.55;;
17714;SDS011;8977;50.902;4.314;2023-07-13T09:38:11;6.05;;;2.40;;
17714;SDS011;8977;50.902;4.314;2023-07-13T09:40:44;4.03;;;1.85;;
17714;SDS011;8977;50.902;4.314;2023-07-13T09:43:27;5.55;;;2.13;;
17714;SDS011;8977;50.902;4.314;2023-07-13T09:45:55;4.45;;;2.03;;
17714;SDS011;8977;50.902;4.314;2023-07-13T09:48:23;5.25;;;1.95;;
17714;SDS011;8977;50.902;4.314;2023-07-13T09:50:53;7.90;;;2.47;;
17714;SDS011;8977;50.902;4.314;2023-07-13T09:53:22;4.80;;;2.08;;
17714;SDS011;8977;50.902;4.314;2023-07-13T09:55:49;4.57;;;2.15;;
17714;SDS011;8977;50.902;4.314;2023-07-13T09:58:16;4.75;;;2.30;;
17714;SDS011;8977;50.902;4.314;2023-07-13T10:00:55;5.97;;;2.30;;
17714;SDS011;8977;50.902;4.314;2023-07-13T10:03:26;6.30;;;2.25;;
17714;SDS011;8977;50.902;4.314;2023-07-13T10:05:57;6.80;;;2.33;;
17714;SDS011;8977;50.902;4.314;2023-07-13T10:08:32;6.00;;;2.58;;
17714;SDS011;8977;50.902;4.314;2023-07-13T10:11:08;5.30;;;2.50;;
17714;SDS011;8977;50.902;4.314;2023-07-13T10:13:37;5.13;;;2.17;;
17714;SDS011;8977;50.902;4.314;2023-07-13T10:16:08;7.65;;;2.20;;
17714;SDS011;8977;50.902;4.314;2023-07-13T10:18:39;3.60;;;2.15;;
17714;SDS011;8977;50.902;4.314;2023-07-13T10:21:11;3.13;;;1.90;;
17714;SDS011;8977;50.902;4.314;2023-07-13T10:23:41;5.85;;;2.00;;
17714;SDS011;8977;50.902;4.314;2023-07-13T10:26:12;5.30;;;1.80;;
17714;SDS011;8977;50.902;4.314;2023-07-13T10:28:43;4.50;;;2.10;;
17714;SDS011;8977;50.902;4.314;2023-07-13T10:31:14;6.35;;;2.20;;
17714;SDS011;8977;50.902;4.314;2023-07-13T10:33:43;6.57;;;2.28;;
17714;SDS011;8977;50.902;4.314;2023-07-13T10:36:14;4.32;;;1.88;;
17714;SDS011;8977;50.902;4.314;2023-07-13T10:38:47;5.38;;;2.50;;
17714;SDS011;8977;50.902;4.314;2023-07-13T10:41:18;4.63;;;2.10;;
17714;SDS011;8977;50.902;4.314;2023-07-13T10:43:50;4.28;;;2.05;;
17714;SDS011;8977;50.902;4.314;2023-07-13T10:46:22;5.05;;;2.53;;
17714;SDS011;8977;50.902;4.314;2023-07-13T10:48:53;9.45;;;3.38;;
17714;SDS011;8977;50.902;4.314;2023-07-13T10:51:24;6.07;;;2.92;;
17714;SDS011;8977;50.902;4.314;2023-07-13T10:54:11;5.80;;;3.03;;
17714;SDS011;8977;50.902;4.314;2023-07-13T10:56:43;5.97;;;3.25;;
17714;SDS011;8977;50.902;4.314;2023-07-13T10:59:12;7.57;;;3.35;;
17714;SDS011;8977;50.902;4.314;2023-07-13T11:01:46;6.95;;;3.40;;
17714;SDS011;8977;50.902;4.314;2023-07-13T11:04:19;6.32;;;3.00;;
17714;SDS011;8977;50.902;4.314;2023-07-13T11:06:47;10.05;;;3.20;;
17714;SDS011;8977;50.902;4.314;2023-07-13T11:09:31;7.05;;;3.00;;
17714;SDS011;8977;50.902;4.314;2023-07-13T11:12:01;6.70;;;2.67;;
17714;SDS011;8977;50.902;4.314;2023-07-13T11:14:34;5.85;;;2.60;;
17714;SDS011;8977;50.902;4.314;2023-07-13T11:20:08;8.15;;;2.83;;
17714;SDS011;8977;50.902;4.314;2023-07-13T11:22:51;4.28;;;2.25;;
17714;SDS011;8977;50.902;4.314;2023-07-13T11:25:26;5.85;;;2.13;;
17714;SDS011;8977;50.902;4.314;2023-07-13T11:31:01;4.28;;;1.98;;
17714;SDS011;8977;50.902;4.314;2023-07-13T11:33:56;7.70;;;2.17;;
17714;SDS011;8977;50.902;4.314;2023-07-13T11:36:28;5.05;;;2.10;;
17714;SDS011;8977;50.902;4.314;2023-07-13T11:38:59;6.93;;;2.20;;
17714;SDS011;8977;50.902;4.314;2023-07-13T11:41:29;4.07;;;2.20;;
17714;SDS011;8977;50.902;4.314;2023-07-13T11:44:07;8.73;;;3.22;;
17714;SDS011;8977;50.902;4.314;2023-07-13T11:46:43;5.78;;;2.17;;
17714;SDS011;8977;50.902;4.314;2023-07-13T11:49:15;5.18;;;2.63;;
17714;SDS011;8977;50.902;4.314;2023-07-13T11:51:45;6.05;;;2.50;;
17714;SDS011;8977;50.902;4.314;2023-07-13T11:54:22;7.47;;;2.80;;
17714;SDS011;8977;50.902;4.314;2023-07-13T11:56:52;4.57;;;2.90;;
17714;SDS011;8977;50.902;4.314;2023-07-13T11:59:21;5.32;;;2.60;;
17714;SDS011;8977;50.902;4.314;2023-07-13T12:01:49;4.00;;;2.30;;
17714;SDS011;8977;50.902;4.314;2023-07-13T12:04:20;3.58;;;2.20;;
17714;SDS011;8977;50.902;4.314;2023-07-13T12:06:58;5.95;;;2.47;;
17714;SDS011;8977;50.902;4.314;2023-07-13T12:09:30;5.20;;;2.38;;
17714;SDS011;8977;50.902;4.314;2023-07-13T12:12:01;5.28;;;2.50;;
17714;SDS011;8977;50.902;4.314;2023-07-13T12:14:28;5.32;;;2.45;;
17714;SDS011;8977;50.902;4.314;2023-07-13T12:16:59;6.15;;;2.10;;
17714;SDS011;8977;50.902;4.314;2023-07-13T12:19:27;5.43;;;1.90;;
17714;SDS011;8977;50.902;4.314;2023-07-13T12:21:55;3.47;;;1.90;;
17714;SDS011;8977;50.902;4.314;2023-07-13T12:24:25;2.17;;;1.70;;
17714;SDS011;8977;50.902;4.314;2023-07-13T12:26:53;3.35;;;2.08;;
17714;SDS011;8977;50.902;4.314;2023-07-13T12:29:21;2.25;;;1.45;;
17714;SDS011;8977;50.902;4.314;2023-07-13T12:31:49;3.25;;;1.42;;
17714;SDS011;8977;50.902;4.314;2023-07-13T12:34:18;4.75;;;1.50;;
17714;SDS011;8977;50.902;4.314;2023-07-13T12:36:47;2.22;;;1.58;;
17714;SDS011;8977;50.902;4.314;2023-07-13T12:39:18;2.35;;;1.60;;
17714;SDS011;8977;50.902;4.314;2023-07-13T12:41:47;4.90;;;1.45;;
17714;SDS011;8977;50.902;4.314;2023-07-13T12:44:16;3.60;;;1.70;;
17714;SDS011;8977;50.902;4.314;2023-07-13T12:46:54;2.13;;;1.90;;
17714;SDS011;8977;50.902;4.314;2023-07-13T12:49:26;4.40;;;1.83;;
17714;SDS011;8977;50.902;4.314;2023-07-13T12:51:59;4.75;;;1.83;;
17714;SDS011;8977;50.902;4.314;2023-07-13T12:54:29;2.83;;;1.73;;
17714;SDS011;8977;50.902;4.314;2023-07-13T12:56:57;4.60;;;1.80;;
17714;SDS011;8977;50.902;4.314;2023-07-13T12:59:29;3.50;;;2.08;;
17714;SDS011;8977;50.902;4.314;2023-07-13T13:02:01;4.93;;;2.08;;
17714;SDS011;8977;50.902;4.314;2023-07-13T13:04:28;4.45;;;2.30;;
17714;SDS011;8977;50.902;4.314;2023-07-13T13:07:03;3.97;;;2.33;;
17714;SDS011;8977;50.902;4.314;2023-07-13T13:09:37;2.42;;;1.80;;
17714;SDS011;8977;50.902;4.314;2023-07-13T13:12:04;4.38;;;1.80;;
17714;SDS011;8977;50.902;4.314;2023-07-13T13:14:31;4.97;;;1.98;;
17714;SDS011;8977;50.902;4.314;2023-07-13T13:16:58;3.65;;;2.03;;
17714;SDS011;8977;50.902;4.314;2023-07-13T13:19:27;4.03;;;1.80;;
17714;SDS011;8977;50.902;4.314;2023-07-13T13:21:56;2.50;;;1.77;;
17714;SDS011;8977;50.902;4.314;2023-07-13T13:24:26;2.72;;;1.80;;
17714;SDS011;8977;50.902;4.314;2023-07-13T13:26:55;2.83;;;1.80;;
17714;SDS011;8977;50.902;4.314;2023-07-13T13:29:23;2.33;;;1.45;;
17714;SDS011;8977;50.902;4.314;2023-07-13T13:31:51;2.47;;;1.67;;
17714;SDS011;8977;50.902;4.314;2023-07-13T13:34:18;2.15;;;1.48;;
17714;SDS011;8977;50.902;4.314;2023-07-13T13:36:48;3.75;;;2.00;;
17714;SDS011;8977;50.902;4.314;2023-07-13T13:39:20;2.55;;;1.52;;
17714;SDS011;8977;50.902;4.314;2023-07-13T13:41:48;3.47;;;1.63;;
17714;SDS011;8977;50.902;4.314;2023-07-13T13:44:17;5.53;;;1.90;;
17714;SDS011;8977;50.902;4.314;2023-07-13T13:46:45;3.33;;;1.70;;
17714;SDS011;8977;50.902;4.314;2023-07-13T13:49:15;3.72;;;1.80;;
17714;SDS011;8977;50.902;4.314;2023-07-13T13:51:44;4.07;;;2.13;;
17714;SDS011;8977;50.902;4.314;2023-07-13T13:54:12;2.03;;;1.60;;
17714;SDS011;8977;50.902;4.314;2023-07-13T13:56:41;2.25;;;1.60;;
17714;SDS011;8977;50.902;4.314;2023-07-13T13:59:09;3.95;;;2.03;;
17714;SDS011;8977;50.902;4.314;2023-07-13T14:01:37;3.50;;;1.80;;
17714;SDS011;8977;50.902;4.314;2023-07-13T14:04:04;4.45;;;2.00;;
17714;SDS011;8977;50.902;4.314;2023-07-13T14:06:33;3.20;;;1.67;;
17714;SDS011;8977;50.902;4.314;2023-07-13T14:09:00;3.95;;;1.70;;
17714;SDS011;8977;50.902;4.314;2023-07-13T14:11:28;3.17;;;1.60;;
17714;SDS011;8977;50.902;4.314;2023-07-13T14:13:58;3.78;;;2.05;;
17714;SDS011;8977;50.902;4.314;2023-07-13T14:16:28;3.47;;;1.85;;
17714;SDS011;8977;50.902;4.314;2023-07-13T14:18:58;5.13;;;1.83;;
17714;SDS011;8977;50.902;4.314;2023-07-13T14:21:26;2.67;;;1.50;;
17714;SDS011;8977;50.902;4.314;2023-07-13T14:23:54;3.92;;;1.50;;
17714;SDS011;8977;50.902;4.314;2023-07-13T14:26:22;3.08;;;1.85;;
17714;SDS011;8977;50.902;4.314;2023-07-13T14:28:51;3.88;;;1.63;;
17714;SDS011;8977;50.902;4.314;2023-07-13T14:31:19;2.97;;;1.50;;
17714;SDS011;8977;50.902;4.314;2023-07-13T14:33:47;4.40;;;1.40;;
17714;SDS011;8977;50.902;4.314;2023-07-13T14:36:20;3.25;;;1.50;;
17714;SDS011;8977;50.902;4.314;2023-07-13T14:38:51;4.82;;;1.92;;
17714;SDS011;8977;50.902;4.314;2023-07-13T14:41:18;3.13;;;1.67;;
17714;SDS011;8977;50.902;4.314;2023-07-13T14:43:46;2.20;;;1.52;;
17714;SDS011;8977;50.902;4.314;2023-07-13T14:46:26;2.90;;;1.60;;
17714;SDS011;8977;50.902;4.314;2023-07-13T14:48:58;3.63;;;1.65;;
17714;SDS011;8977;50.902;4.314;2023-07-13T14:51:30;2.85;;;1.50;;
17714;SDS011;8977;50.902;4.314;2023-07-13T14:53:58;3.45;;;1.40;;
17714;SDS011;8977;50.902;4.314;2023-07-13T14:56:28;1.77;;;1.42;;
17714;SDS011;8977;50.902;4.314;2023-07-13T14:58:55;1.88;;;1.40;;
17714;SDS011;8977;50.902;4.314;2023-07-13T15:01:22;2.70;;;1.60;;
17714;SDS011;8977;50.902;4.314;2023-07-13T15:03:50;3.78;;;1.73;;
17714;SDS011;8977;50.902;4.314;2023-07-13T15:06:19;2.83;;;1.58;;
17714;SDS011;8977;50.902;4.314;2023-07-13T15:08:48;3.05;;;1.50;;
17714;SDS011;8977;50.902;4.314;2023-07-13T15:11:16;2.78;;;1.80;;
17714;SDS011;8977;50.902;4.314;2023-07-13T15:13:43;3.63;;;1.50;;
17714;SDS011;8977;50.902;4.314;2023-07-13T15:16:16;5.97;;;1.60;;
17714;SDS011;8977;50.902;4.314;2023-07-13T15:18:44;3.58;;;1.60;;
17714;SDS011;8977;50.902;4.314;2023-07-13T15:21:14;3.03;;;1.65;;